createdAt,value
2022-09-20T00:01:28.362Z,14.75
2022-09-20T00:04:17.019Z,15.55
2022-09-20T00:07:07.426Z,15.00
2022-09-20T00:09:57.017Z,16.75
2022-09-20T00:12:45.723Z,15.77
2022-09-20T00:15:35.290Z,15.88
2022-09-20T00:18:23.926Z,14.80
2022-09-20T00:21:17.573Z,16.10
2022-09-20T00:24:07.898Z,14.80
2022-09-20T00:26:56.576Z,15.23
2022-09-20T00:29:45.063Z,14.45
2022-09-20T00:32:33.734Z,14.80
2022-09-20T00:35:21.261Z,15.52
2022-09-20T00:38:10.933Z,16.15
2022-09-20T00:41:00.962Z,16.27
2022-09-20T00:43:49.363Z,15.55
2022-09-20T00:46:42.232Z,16.13
2022-09-20T00:49:31.597Z,15.35
2022-09-20T00:52:20.652Z,17.08
2022-09-20T00:55:11.389Z,15.93
2022-09-20T00:58:01.786Z,17.45
2022-09-20T01:00:52.057Z,17.65
2022-09-20T01:03:42.066Z,16.38
2022-09-20T01:06:31.721Z,16.65
2022-09-20T01:09:20.301Z,16.60
2022-09-20T01:12:15.071Z,16.35
2022-09-20T01:15:06.842Z,16.98
2022-09-20T01:17:59.109Z,15.65
2022-09-20T01:20:49.435Z,14.77
2022-09-20T01:23:48.192Z,17.00
2022-09-20T01:26:59.884Z,15.52
2022-09-20T01:30:04.374Z,16.13
2022-09-20T01:33:08.513Z,15.18
2022-09-20T01:35:59.929Z,16.08
2022-09-20T01:38:57.125Z,15.85
2022-09-20T01:41:49.881Z,16.42
2022-09-20T01:44:44.705Z,17.00
2022-09-20T01:47:41.403Z,17.13
2022-09-20T01:50:36.344Z,15.77
2022-09-20T01:53:50.075Z,16.33
2022-09-20T01:57:14.517Z,16.52
2022-09-20T02:00:12.042Z,15.50
2022-09-20T02:03:51.873Z,15.68
2022-09-20T02:07:06.472Z,15.32
2022-09-20T02:10:13.749Z,16.00
2022-09-20T02:13:05.706Z,15.63
2022-09-20T02:16:26.738Z,16.00
2022-09-20T02:19:34.234Z,16.40
2022-09-20T02:22:44.229Z,16.13
2022-09-20T02:25:54.321Z,16.20
2022-09-20T02:28:55.734Z,16.08
2022-09-20T02:32:01.737Z,16.45
2022-09-20T02:35:13.739Z,16.20
2022-09-20T02:38:12.798Z,15.73
2022-09-20T02:41:30.599Z,14.75
2022-09-20T02:44:41.022Z,15.32
2022-09-20T02:47:34.563Z,15.75
2022-09-20T02:50:30.795Z,15.00
2022-09-20T02:53:34.001Z,15.45
2022-09-20T02:56:30.932Z,15.90
2022-09-20T02:59:28.991Z,16.00
2022-09-20T03:02:25.130Z,15.55
2022-09-20T03:05:20.046Z,15.68
2022-09-20T03:08:21.965Z,15.73
2022-09-20T03:11:19.803Z,15.63
2022-09-20T03:14:16.014Z,16.08
2022-09-20T03:17:15.271Z,16.17
2022-09-20T03:20:16.326Z,15.73
2022-09-20T03:23:15.045Z,16.67
2022-09-20T03:26:15.056Z,16.67
2022-09-20T03:29:10.368Z,16.08
2022-09-20T03:32:14.001Z,15.70
2022-09-20T03:35:15.609Z,15.00
2022-09-20T03:38:20.856Z,13.90
2022-09-20T03:41:25.875Z,14.15
2022-09-20T03:44:43.137Z,13.77
2022-09-20T03:47:47.907Z,13.55
2022-09-20T03:51:02.055Z,13.63
2022-09-20T03:54:17.187Z,12.40
2022-09-20T03:57:39.336Z,13.55
2022-09-20T04:00:39.836Z,13.88
2022-09-20T04:03:37.483Z,13.75
2022-09-20T04:06:43.520Z,13.05
2022-09-20T04:10:07.972Z,13.38
2022-09-20T04:13:13.193Z,13.77
2022-09-20T04:16:27.672Z,12.65
2022-09-20T04:19:23.030Z,12.90
2022-09-20T04:22:11.948Z,12.88
2022-09-20T04:25:06.870Z,12.65
2022-09-20T04:27:59.802Z,12.57
2022-09-20T04:30:49.167Z,11.77
2022-09-20T04:33:44.513Z,12.70
2022-09-20T04:36:50.775Z,11.85
2022-09-20T04:39:48.743Z,12.00
2022-09-20T04:43:10.721Z,12.00
2022-09-20T04:46:18.382Z,12.23
2022-09-20T04:49:35.926Z,12.90
2022-09-20T04:52:55.326Z,13.43
2022-09-20T04:55:52.247Z,12.35
2022-09-20T04:58:48.219Z,12.77
2022-09-20T05:02:23.797Z,12.45
2022-09-20T05:05:35.882Z,12.60
2022-09-20T05:09:06.918Z,12.43
2022-09-20T05:12:13.047Z,12.70
2022-09-20T05:15:11.666Z,12.90
2022-09-20T05:18:21.632Z,12.65
2022-09-20T05:21:24.722Z,12.20
2022-09-20T05:24:26.436Z,12.23
2022-09-20T05:27:34.836Z,11.38
2022-09-20T05:30:33.803Z,12.27
2022-09-20T05:33:29.954Z,11.48
2022-09-20T05:36:34.343Z,11.98
2022-09-20T05:39:37.874Z,11.43
2022-09-20T05:42:39.363Z,17.67
2022-09-20T05:45:58.953Z,10.70
2022-09-20T05:48:56.488Z,11.82
2022-09-20T05:52:01.260Z,10.80
2022-09-20T05:55:09.282Z,10.98
2022-09-20T05:58:31.957Z,10.65
2022-09-20T06:01:27.040Z,10.80
2022-09-20T06:04:19.980Z,11.25
2022-09-20T06:07:21.676Z,11.73
2022-09-20T06:10:34.188Z,11.98
2022-09-20T06:13:39.839Z,11.73
2022-09-20T06:16:39.385Z,11.68
2022-09-20T06:19:36.378Z,11.65
2022-09-20T06:22:29.673Z,11.35
2022-09-20T06:25:23.725Z,13.07
2022-09-20T06:28:17.626Z,12.18
2022-09-20T06:31:11.342Z,11.98
2022-09-20T06:34:05.036Z,13.18
2022-09-20T06:37:18.305Z,13.07
2022-09-20T06:40:50.273Z,12.55
2022-09-20T06:43:41.625Z,13.20
2022-09-20T06:46:31.633Z,13.00
2022-09-20T06:49:20.033Z,12.98
2022-09-20T06:52:10.883Z,13.77
2022-09-20T06:54:59.308Z,13.68
2022-09-20T06:57:51.590Z,13.27
2022-09-20T07:00:40.762Z,13.13
2022-09-20T07:03:29.186Z,13.13
2022-09-20T07:06:19.863Z,13.45
2022-09-20T07:09:08.630Z,12.75
2022-09-20T07:11:59.093Z,12.95
2022-09-20T07:14:50.684Z,13.00
2022-09-20T07:17:39.038Z,13.90
2022-09-20T07:20:27.578Z,13.48
2022-09-20T07:23:16.976Z,14.27
2022-09-20T07:26:05.753Z,14.30
2022-09-20T07:28:54.743Z,13.93
2022-09-20T07:31:45.158Z,14.10
2022-09-20T07:34:33.652Z,13.85
2022-09-20T07:37:22.484Z,13.70
2022-09-20T07:40:12.566Z,12.57
2022-09-20T07:43:00.952Z,13.95
2022-09-20T07:45:52.626Z,13.90
2022-09-20T07:48:43.179Z,12.65
2022-09-20T07:51:32.343Z,13.10
2022-09-20T07:54:21.237Z,12.45
2022-09-20T07:57:09.661Z,13.18
2022-09-20T07:59:58.069Z,12.60
2022-09-20T08:02:46.361Z,12.90
2022-09-20T08:05:36.451Z,12.13
2022-09-20T08:08:25.053Z,12.93
2022-09-20T08:11:16.216Z,13.50
2022-09-20T08:14:06.889Z,14.40
2022-09-20T08:17:00.273Z,13.85
2022-09-20T08:19:48.737Z,13.30
2022-09-20T08:22:42.185Z,15.27
2022-09-20T08:25:30.716Z,16.65
2022-09-20T08:28:19.367Z,14.55
2022-09-20T08:31:09.896Z,14.35
2022-09-20T08:33:59.064Z,13.75
2022-09-20T08:36:51.815Z,12.43
2022-09-20T08:39:58.423Z,12.63
2022-09-20T08:42:47.468Z,11.63
2022-09-20T08:45:35.851Z,11.60
2022-09-20T08:48:32.977Z,12.00
2022-09-20T08:51:23.439Z,11.98
2022-09-20T08:54:16.309Z,12.23
2022-09-20T08:57:15.659Z,12.55
2022-09-20T09:00:07.570Z,12.60
2022-09-20T09:02:59.001Z,11.20
2022-09-20T09:05:49.243Z,12.27
2022-09-20T09:08:40.011Z,15.10
2022-09-20T09:11:28.411Z,13.65
2022-09-20T09:14:46.050Z,14.25
2022-09-20T09:17:35.312Z,15.63
2022-09-20T09:20:25.088Z,15.20
2022-09-20T09:23:26.057Z,15.40
2022-09-20T09:26:19.124Z,15.20
2022-09-20T09:29:17.624Z,14.55
2022-09-20T09:32:23.801Z,14.68
2022-09-20T09:35:25.484Z,15.10
2022-09-20T09:38:23.529Z,15.93
2022-09-20T09:41:29.971Z,15.75
2022-09-20T09:44:24.931Z,16.63
2022-09-20T09:47:28.196Z,16.73
2022-09-20T09:50:24.197Z,15.85
2022-09-20T09:53:16.659Z,14.85
2022-09-20T09:56:47.663Z,15.70
2022-09-20T09:59:57.623Z,15.85
2022-09-20T10:03:18.747Z,16.55
2022-09-20T10:06:16.839Z,16.70
2022-09-20T10:09:20.166Z,16.48
2022-09-20T10:12:22.179Z,16.42
2022-09-20T10:15:29.605Z,14.82
2022-09-20T10:18:32.764Z,15.43
2022-09-20T10:24:40.628Z,13.77
2022-09-20T10:27:42.107Z,12.65
2022-09-20T10:30:42.939Z,12.52
2022-09-20T10:33:39.491Z,11.75
2022-09-20T10:36:33.385Z,11.77
2022-09-20T10:39:28.088Z,12.45
2022-09-20T10:42:46.155Z,11.30
2022-09-20T10:49:03.645Z,12.20
2022-09-20T10:52:03.419Z,11.95
2022-09-20T10:55:15.493Z,12.30
2022-09-20T10:58:47.149Z,13.27
2022-09-20T11:01:44.249Z,10.98
2022-09-20T11:04:56.529Z,12.18
2022-09-20T11:07:56.188Z,10.38
2022-09-20T11:10:49.634Z,10.82
2022-09-20T11:13:45.804Z,10.43
2022-09-20T11:16:41.918Z,11.15
2022-09-20T11:19:36.351Z,11.40
2022-09-20T11:22:32.801Z,9.95
2022-09-20T11:25:34.303Z,9.52
2022-09-20T11:28:28.403Z,9.38
2022-09-20T11:31:24.653Z,8.32
2022-09-20T11:34:19.478Z,8.55
2022-09-20T11:37:08.006Z,8.70
2022-09-20T11:40:02.676Z,7.93
2022-09-20T11:42:52.624Z,8.70
2022-09-20T11:45:43.227Z,8.80
2022-09-20T11:48:35.340Z,7.47
2022-09-20T11:51:45.461Z,7.22
2022-09-20T11:55:10.900Z,7.07
2022-09-20T11:58:03.686Z,6.45
2022-09-20T12:00:56.658Z,5.97
2022-09-20T12:04:00.115Z,5.80
2022-09-20T12:07:06.055Z,5.32
2022-09-20T12:10:01.289Z,5.10
2022-09-20T12:12:51.235Z,5.40
2022-09-20T12:15:44.253Z,5.32
2022-09-20T12:18:48.878Z,5.65
2022-09-20T12:22:13.781Z,5.75
2022-09-20T12:25:38.521Z,5.18
2022-09-20T12:28:35.308Z,5.30
2022-09-20T12:31:48.465Z,5.20
2022-09-20T12:34:38.305Z,4.85
2022-09-20T12:37:28.078Z,5.15
2022-09-20T12:40:19.296Z,5.18
2022-09-20T12:43:18.173Z,5.00
2022-09-20T12:46:11.845Z,4.70
2022-09-20T12:50:09.425Z,4.43
2022-09-20T12:53:04.246Z,4.70
2022-09-20T12:55:56.382Z,4.95
2022-09-20T12:58:53.656Z,4.28
2022-09-20T13:01:43.669Z,4.40
2022-09-20T13:05:02.363Z,4.18
2022-09-20T13:07:59.540Z,5.07
2022-09-20T13:10:56.188Z,4.75
2022-09-20T13:13:49.246Z,4.45
2022-09-20T13:16:47.589Z,4.32
2022-09-20T13:19:39.049Z,4.38
2022-09-20T13:22:30.474Z,3.90
2022-09-20T13:25:22.462Z,3.90
2022-09-20T13:28:25.681Z,3.90
2022-09-20T13:31:32.698Z,3.88
2022-09-20T13:34:23.883Z,3.90
2022-09-20T13:37:21.168Z,2.80
2022-09-20T13:40:19.665Z,2.88
2022-09-20T13:43:24.103Z,3.28
2022-09-20T13:46:16.487Z,3.70
2022-09-20T13:49:17.637Z,4.38
2022-09-20T13:52:23.582Z,4.43
2022-09-20T13:55:27.496Z,4.40
2022-09-20T13:58:24.104Z,4.40
2022-09-20T14:01:24.195Z,3.58
2022-09-20T14:04:17.437Z,2.90
2022-09-20T14:07:08.552Z,3.00
2022-09-20T14:09:58.278Z,3.00
2022-09-20T14:12:49.251Z,3.42
2022-09-20T14:15:42.215Z,2.65
2022-09-20T14:18:31.571Z,3.50
2022-09-20T14:21:25.140Z,3.75
2022-09-20T14:24:32.197Z,3.05
2022-09-20T14:27:22.561Z,2.50
2022-09-20T14:30:30.558Z,2.95
2022-09-20T14:33:21.951Z,3.10
2022-09-20T14:36:15.788Z,3.20
2022-09-20T14:39:06.202Z,3.08
2022-09-20T14:41:55.566Z,3.13
2022-09-20T14:44:44.168Z,3.45
2022-09-20T14:47:39.507Z,13.40
2022-09-20T14:50:32.777Z,4.35
2022-09-20T14:53:27.611Z,3.72
2022-09-20T14:56:17.252Z,4.18
2022-09-20T14:59:21.534Z,4.53
2022-09-20T15:02:14.930Z,4.38
2022-09-20T15:05:03.789Z,5.22
2022-09-20T15:07:54.697Z,4.97
2022-09-20T15:10:43.139Z,3.50
2022-09-20T15:13:32.124Z,3.50
2022-09-20T15:16:21.736Z,3.78
2022-09-20T15:19:10.953Z,2.95
2022-09-20T15:22:00.671Z,3.10
2022-09-20T15:24:50.828Z,3.35
2022-09-20T15:27:39.527Z,2.80
2022-09-20T15:30:28.055Z,2.70
2022-09-20T15:33:17.084Z,2.78
2022-09-20T15:36:06.443Z,2.20
2022-09-20T15:38:55.339Z,2.10
2022-09-20T15:41:46.171Z,1.98
2022-09-20T15:44:34.582Z,2.05
2022-09-20T15:47:23.153Z,1.90
2022-09-20T15:50:12.104Z,2.25
2022-09-20T15:53:00.904Z,1.80
2022-09-20T15:55:49.339Z,1.48
2022-09-20T15:58:39.277Z,1.70
2022-09-20T16:01:30.135Z,1.52
2022-09-20T16:04:20.378Z,1.40
2022-09-20T16:07:09.754Z,1.40
2022-09-20T16:09:58.713Z,1.48
2022-09-20T16:12:47.401Z,1.17
2022-09-20T16:15:38.889Z,1.45
2022-09-20T16:18:47.547Z,1.35
2022-09-20T16:21:37.734Z,1.35
2022-09-20T16:24:27.269Z,1.67
2022-09-20T16:27:18.763Z,1.83
2022-09-20T16:30:09.300Z,1.50
2022-09-20T16:33:01.848Z,1.60
2022-09-20T16:35:50.322Z,1.67
2022-09-20T16:38:43.594Z,1.80
2022-09-20T16:41:32.893Z,1.60
2022-09-20T16:44:21.531Z,1.80
2022-09-20T16:47:14.365Z,1.88
2022-09-20T16:50:04.400Z,2.15
2022-09-20T16:52:52.938Z,2.33
2022-09-20T16:55:45.548Z,2.40
2022-09-20T16:58:35.445Z,2.40
2022-09-20T17:01:24.660Z,2.75
2022-09-20T17:04:14.617Z,3.53
2022-09-20T17:07:04.638Z,2.20
2022-09-20T17:10:01.039Z,2.60
2022-09-20T17:12:52.524Z,2.42
2022-09-20T17:15:41.653Z,2.80
2022-09-20T17:18:30.854Z,2.60
2022-09-20T17:21:20.343Z,3.00
2022-09-20T17:24:11.074Z,2.63
2022-09-20T17:27:01.984Z,3.10
2022-09-20T17:29:51.419Z,2.50
2022-09-20T17:32:40.056Z,2.65
2022-09-20T17:35:29.612Z,3.45
2022-09-20T17:38:18.115Z,3.28
2022-09-20T17:41:09.898Z,2.53
2022-09-20T17:43:59.764Z,2.67
2022-09-20T17:46:50.704Z,2.75
2022-09-20T17:49:41.193Z,2.83
2022-09-20T17:52:29.720Z,3.17
2022-09-20T17:55:18.728Z,2.80
2022-09-20T17:58:08.537Z,2.72
2022-09-20T18:01:03.936Z,2.80
2022-09-20T18:03:53.174Z,3.40
2022-09-20T18:06:43.337Z,2.63
2022-09-20T18:09:32.904Z,2.47
2022-09-20T18:12:21.664Z,2.80
2022-09-20T18:15:11.846Z,2.75
2022-09-20T18:18:00.364Z,2.67
2022-09-20T18:20:49.128Z,3.22
2022-09-20T18:23:37.743Z,3.63
2022-09-20T18:26:27.700Z,3.20
2022-09-20T18:29:18.331Z,3.72
2022-09-20T18:32:09.188Z,3.53
2022-09-20T18:34:58.286Z,3.70
2022-09-20T18:37:47.589Z,3.67
2022-09-20T18:40:38.705Z,4.13
2022-09-20T18:43:30.518Z,4.20
2022-09-20T18:46:23.982Z,6.60
2022-09-20T18:49:17.036Z,5.15
2022-09-20T18:52:05.963Z,5.93
2022-09-20T18:54:56.156Z,6.28
2022-09-20T18:57:45.295Z,6.18
2022-09-20T19:00:34.830Z,6.93
2022-09-20T19:03:28.889Z,7.05
2022-09-20T19:06:25.163Z,9.52
2022-09-20T19:09:23.445Z,8.65
2022-09-20T19:12:20.575Z,8.05
2022-09-20T19:15:24.409Z,8.32
2022-09-20T19:18:26.617Z,8.55
2022-09-20T19:21:26.739Z,8.07
2022-09-20T19:24:26.237Z,8.13
2022-09-20T19:27:15.363Z,7.43
2022-09-20T19:30:04.642Z,7.28
2022-09-20T19:32:53.589Z,6.53
2022-09-20T19:35:49.322Z,7.85
2022-09-20T19:38:49.824Z,6.88
2022-09-20T19:41:47.488Z,7.20
2022-09-20T19:44:47.403Z,7.45
2022-09-20T19:47:46.594Z,7.03
2022-09-20T19:50:41.137Z,6.50
2022-09-20T19:53:30.675Z,6.50
2022-09-20T19:56:24.955Z,6.75
2022-09-20T19:59:14.207Z,5.80
2022-09-20T20:02:03.415Z,5.93
2022-09-20T20:04:52.858Z,7.22
2022-09-20T20:07:48.779Z,5.95
2022-09-20T20:10:54.428Z,5.82
2022-09-20T20:14:07.210Z,5.30
2022-09-20T20:17:07.620Z,5.50
2022-09-20T20:20:07.307Z,6.10
2022-09-20T20:23:23.584Z,5.40
2022-09-20T20:26:20.252Z,5.57
2022-09-20T20:29:12.079Z,6.05
2022-09-20T20:32:00.525Z,7.95
2022-09-20T20:34:49.057Z,6.93
2022-09-20T20:37:40.201Z,6.70
2022-09-20T20:40:28.730Z,6.65
2022-09-20T20:43:18.399Z,6.10
2022-09-20T20:46:09.662Z,7.00
2022-09-20T20:48:58.654Z,6.43
2022-09-20T20:51:47.635Z,6.47
2022-09-20T20:54:36.110Z,6.13
2022-09-20T20:57:25.657Z,5.90
2022-09-20T21:00:15.299Z,5.20
2022-09-20T21:03:05.774Z,5.82
2022-09-20T21:05:54.913Z,5.93
2022-09-20T21:08:48.988Z,5.28
2022-09-20T21:11:40.513Z,5.93
2022-09-20T21:14:29.913Z,5.75
2022-09-20T21:17:18.527Z,5.63
2022-09-20T21:20:09.846Z,5.35
2022-09-20T21:22:58.288Z,5.80
2022-09-20T21:25:46.715Z,5.15
2022-09-20T21:28:37.451Z,5.13
2022-09-20T21:31:27.571Z,5.20
2022-09-20T21:34:17.393Z,4.97
2022-09-20T21:37:07.501Z,4.70
2022-09-20T21:39:55.984Z,5.57
2022-09-20T21:42:44.510Z,4.78
2022-09-20T21:45:33.657Z,4.80
2022-09-20T21:48:22.071Z,5.40
2022-09-20T21:51:12.062Z,5.13
2022-09-20T21:54:02.951Z,5.10
2022-09-20T21:56:55.675Z,5.43
2022-09-20T21:59:44.085Z,5.25
2022-09-20T22:02:34.368Z,5.28
2022-09-20T22:05:22.839Z,5.25
2022-09-20T22:08:12.731Z,5.47
2022-09-20T22:11:03.201Z,5.75
2022-09-20T22:13:53.171Z,6.15
2022-09-20T22:16:43.538Z,5.70
2022-09-20T22:19:32.233Z,6.03
2022-09-20T22:22:20.997Z,6.05
2022-09-20T22:25:09.963Z,5.80
2022-09-20T22:27:59.648Z,7.00
2022-09-20T22:30:48.125Z,6.50
2022-09-20T22:33:37.355Z,5.75
2022-09-20T22:36:27.911Z,5.90
2022-09-20T22:39:17.136Z,5.60
2022-09-20T22:42:05.912Z,5.75
2022-09-20T22:44:55.806Z,6.72
2022-09-20T22:47:45.203Z,6.72
2022-09-20T22:50:34.313Z,6.22
2022-09-20T22:53:22.733Z,5.45
2022-09-20T22:56:13.488Z,6.35
2022-09-20T22:59:05.661Z,6.10
2022-09-20T23:01:55.938Z,6.00
2022-09-20T23:04:44.453Z,5.65
2022-09-20T23:07:32.976Z,5.80
2022-09-20T23:10:21.511Z,5.88
2022-09-20T23:13:09.916Z,5.35
2022-09-20T23:15:58.773Z,5.95
2022-09-20T23:18:50.128Z,5.70
2022-09-20T23:21:40.163Z,6.22
2022-09-20T23:24:28.543Z,5.45
2022-09-20T23:27:17.551Z,5.80
2022-09-20T23:30:07.444Z,6.05
2022-09-20T23:32:56.043Z,5.75
2022-09-20T23:35:46.809Z,5.82
2022-09-20T23:38:35.483Z,5.90
2022-09-20T23:41:25.363Z,6.03
2022-09-20T23:44:13.899Z,5.30
2022-09-20T23:47:02.319Z,6.13
2022-09-20T23:49:50.704Z,6.07
2022-09-20T23:52:40.399Z,5.75
2022-09-20T23:55:28.937Z,5.82
2022-09-20T23:58:18.183Z,6.38
